createdAt,value
2019-03-22T00:00:30.824Z,139.10
2019-03-22T00:02:59.508Z,156.93
2019-03-22T00:05:28.392Z,146.00
2019-03-22T00:07:57.143Z,140.97
2019-03-22T00:10:25.752Z,148.10
2019-03-22T00:12:54.452Z,137.63
2019-03-22T00:15:23.327Z,142.33
2019-03-22T00:17:52.031Z,129.27
2019-03-22T00:20:20.796Z,124.17
2019-03-22T00:22:49.541Z,125.40
2019-03-22T00:25:18.207Z,137.27
2019-03-22T00:27:46.979Z,137.37
2019-03-22T00:30:15.885Z,130.23
2019-03-22T00:32:44.659Z,141.40
2019-03-22T00:35:13.470Z,143.87
2019-03-22T00:37:42.334Z,156.90
2019-03-22T00:40:11.439Z,167.40
2019-03-22T00:42:40.121Z,176.97
2019-03-22T00:45:10.906Z,145.97
2019-03-22T00:47:39.644Z,144.60
2019-03-22T00:50:10.735Z,146.63
2019-03-22T00:52:39.405Z,142.20
2019-03-22T00:55:08.740Z,138.87
2019-03-22T00:57:37.507Z,127.43
2019-03-22T01:00:14.420Z,132.20
2019-03-22T01:02:43.264Z,139.33
2019-03-22T01:05:12.260Z,131.00
2019-03-22T01:07:41.110Z,133.53
2019-03-22T01:10:14.221Z,134.00
2019-03-22T01:12:42.986Z,136.13
2019-03-22T01:15:14.689Z,138.73
2019-03-22T01:17:43.538Z,139.50
2019-03-22T01:20:13.777Z,149.33
2019-03-22T01:22:42.840Z,159.27
2019-03-22T01:25:12.841Z,159.43
2019-03-22T01:27:41.868Z,165.97
2019-03-22T01:30:14.023Z,155.63
2019-03-22T01:32:43.573Z,165.63
2019-03-22T01:35:13.354Z,156.03
2019-03-22T01:37:42.063Z,153.10
2019-03-22T01:40:12.218Z,176.43
2019-03-22T01:42:40.890Z,172.57
2019-03-22T01:45:12.139Z,157.63
2019-03-22T01:47:40.948Z,156.87
2019-03-22T01:50:12.738Z,144.63
2019-03-22T01:52:41.575Z,143.47
2019-03-22T01:55:10.359Z,146.97
2019-03-22T01:57:39.168Z,139.70
2019-03-22T02:00:11.179Z,144.20
2019-03-22T02:02:39.878Z,146.63
2019-03-22T02:05:09.983Z,144.60
2019-03-22T02:07:38.804Z,140.70
2019-03-22T02:10:10.023Z,145.30
2019-03-22T02:12:38.756Z,142.70
2019-03-22T02:15:10.290Z,153.97
2019-03-22T02:17:39.077Z,145.03
2019-03-22T02:20:09.110Z,162.67
2019-03-22T02:22:37.805Z,163.30
2019-03-22T02:25:07.631Z,142.63
2019-03-22T02:27:36.512Z,132.17
2019-03-22T02:30:10.778Z,135.33
2019-03-22T02:32:39.398Z,136.20
2019-03-22T02:35:08.301Z,142.90
2019-03-22T02:37:37.164Z,142.57
2019-03-22T02:40:13.039Z,133.17
2019-03-22T02:42:41.962Z,123.70
2019-03-22T02:45:14.841Z,135.50
2019-03-22T02:47:43.654Z,125.33
2019-03-22T02:50:18.799Z,121.03
2019-03-22T02:52:44.495Z,124.57
2019-03-22T02:55:13.941Z,121.40
2019-03-22T02:57:42.792Z,128.40
2019-03-22T03:00:14.110Z,132.60
2019-03-22T03:02:42.910Z,132.60
2019-03-22T03:05:11.976Z,141.87
2019-03-22T03:07:40.687Z,155.37
2019-03-22T03:10:14.288Z,151.03
2019-03-22T03:12:43.591Z,152.00
2019-03-22T03:15:16.457Z,160.93
2019-03-22T03:17:45.145Z,153.30
2019-03-22T03:20:15.889Z,158.37
2019-03-22T03:22:44.862Z,152.53
2019-03-22T03:25:13.987Z,158.73
2019-03-22T03:27:42.814Z,168.07
2019-03-22T03:30:17.009Z,152.73
2019-03-22T03:32:45.839Z,156.40
2019-03-22T03:35:15.152Z,157.37
2019-03-22T03:37:43.923Z,168.27
2019-03-22T03:40:15.135Z,162.73
2019-03-22T03:42:43.793Z,144.83
2019-03-22T03:45:30.429Z,155.27
2019-03-22T03:48:00.901Z,146.07
2019-03-22T03:50:29.613Z,149.73
2019-03-22T03:52:58.418Z,148.07
2019-03-22T03:55:28.059Z,140.53
2019-03-22T03:57:56.717Z,142.40
2019-03-22T04:00:25.398Z,138.00
2019-03-22T04:02:54.222Z,144.47
2019-03-22T04:05:22.983Z,149.80
2019-03-22T04:07:52.476Z,135.57
2019-03-22T04:10:21.348Z,152.23
2019-03-22T04:12:49.968Z,136.07
2019-03-22T04:15:18.664Z,127.83
2019-03-22T04:17:47.381Z,130.23
2019-03-22T04:20:16.207Z,130.13
2019-03-22T04:22:44.913Z,136.57
2019-03-22T04:25:13.779Z,127.43
2019-03-22T04:27:42.547Z,121.80
2019-03-22T04:30:11.424Z,117.20
2019-03-22T04:32:40.092Z,118.40
2019-03-22T04:35:09.195Z,138.47
2019-03-22T04:37:37.903Z,132.33
2019-03-22T04:40:18.720Z,135.80
2019-03-22T04:42:47.508Z,138.87
2019-03-22T04:45:16.402Z,135.73
2019-03-22T04:47:46.238Z,137.93
2019-03-22T04:50:15.422Z,129.87
2019-03-22T04:52:44.552Z,124.97
2019-03-22T04:55:14.204Z,130.93
2019-03-22T04:57:43.923Z,140.93
2019-03-22T05:00:13.921Z,167.00
2019-03-22T05:02:43.098Z,173.53
2019-03-22T05:05:13.292Z,169.73
2019-03-22T05:07:42.827Z,158.50
2019-03-22T05:10:13.916Z,167.37
2019-03-22T05:12:44.357Z,155.50
2019-03-22T05:15:15.794Z,149.23
2019-03-22T05:17:45.673Z,133.37
2019-03-22T05:20:15.603Z,122.80
2019-03-22T05:22:45.884Z,123.60
2019-03-22T05:25:15.533Z,124.23
2019-03-22T05:27:45.309Z,124.73
2019-03-22T05:30:35.338Z,132.67
2019-03-22T05:33:04.214Z,135.60
2019-03-22T05:35:32.898Z,136.97
2019-03-22T05:38:01.605Z,127.03
2019-03-22T05:40:30.287Z,129.20
2019-03-22T05:42:58.998Z,117.77
2019-03-22T05:45:27.698Z,116.83
2019-03-22T05:47:56.442Z,112.93
2019-03-22T05:50:25.207Z,114.80
2019-03-22T05:52:54.043Z,112.50
2019-03-22T05:55:22.782Z,109.03
2019-03-22T05:57:51.432Z,104.50
2019-03-22T06:00:20.112Z,111.07
2019-03-22T06:02:48.845Z,109.30
2019-03-22T06:05:17.619Z,105.33
2019-03-22T06:07:46.291Z,111.37
2019-03-22T06:10:14.995Z,101.10
2019-03-22T06:12:43.778Z,104.77
2019-03-22T06:15:12.658Z,111.17
2019-03-22T06:17:51.181Z,105.33
2019-03-22T06:20:11.838Z,106.60
2019-03-22T06:22:40.756Z,109.47
2019-03-22T06:25:09.621Z,119.03
2019-03-22T06:27:38.283Z,116.30
2019-03-22T06:30:08.424Z,109.77
2019-03-22T06:32:37.268Z,114.37
2019-03-22T06:35:07.449Z,107.47
2019-03-22T06:37:36.182Z,112.23
2019-03-22T06:40:06.186Z,127.10
2019-03-22T06:42:34.906Z,137.57
2019-03-22T06:45:04.673Z,155.93
2019-03-22T06:47:33.326Z,159.40
2019-03-22T06:50:02.044Z,147.17
2019-03-22T06:52:30.811Z,146.73
2019-03-22T06:54:59.531Z,139.27
2019-03-22T06:57:28.247Z,140.93
2019-03-22T07:00:05.910Z,139.67
2019-03-22T07:02:27.454Z,133.23
2019-03-22T07:04:56.099Z,131.67
2019-03-22T07:07:24.838Z,146.30
2019-03-22T07:09:53.814Z,135.83
2019-03-22T07:12:22.511Z,139.30
2019-03-22T07:14:51.225Z,142.53
2019-03-22T07:17:20.051Z,145.83
2019-03-22T07:19:48.917Z,146.87
2019-03-22T07:22:17.687Z,145.13
2019-03-22T07:24:46.407Z,139.43
2019-03-22T07:27:15.158Z,138.00
2019-03-22T07:29:43.943Z,125.67
2019-03-22T07:32:12.793Z,121.43
2019-03-22T07:34:41.474Z,130.00
2019-03-22T07:37:10.232Z,156.10
2019-03-22T07:39:38.877Z,132.17
2019-03-22T07:42:07.621Z,118.30
2019-03-22T07:44:36.478Z,128.60
2019-03-22T07:47:05.289Z,130.80
2019-03-22T07:49:34.212Z,138.03
2019-03-22T07:52:02.907Z,131.63
2019-03-22T07:54:31.602Z,124.60
2019-03-22T07:57:00.319Z,131.43
2019-03-22T07:59:29.357Z,130.50
2019-03-22T08:01:58.168Z,128.97
2019-03-22T08:04:26.892Z,136.10
2019-03-22T08:06:55.702Z,134.33
2019-03-22T08:09:24.510Z,145.20
2019-03-22T08:11:53.530Z,130.83
2019-03-22T08:14:22.372Z,131.20
2019-03-22T08:16:51.313Z,130.67
2019-03-22T08:19:20.061Z,136.90
2019-03-22T08:21:48.964Z,140.43
2019-03-22T08:24:17.687Z,136.70
2019-03-22T08:26:46.613Z,142.13
2019-03-22T08:29:15.391Z,146.00
2019-03-22T08:31:44.118Z,154.60
2019-03-22T08:34:13.474Z,136.90
2019-03-22T08:36:43.841Z,130.67
2019-03-22T08:39:12.771Z,134.80
2019-03-22T08:41:41.562Z,133.67
2019-03-22T08:44:10.559Z,140.03
2019-03-22T08:46:39.667Z,129.50
2019-03-22T08:49:09.700Z,132.37
2019-03-22T08:51:38.792Z,116.27
2019-03-22T08:54:07.560Z,130.63
2019-03-22T08:56:36.490Z,133.83
2019-03-22T08:59:05.419Z,129.37
2019-03-22T09:01:34.270Z,127.67
2019-03-22T09:04:03.371Z,124.60
2019-03-22T09:06:32.349Z,122.03
2019-03-22T09:09:01.084Z,123.47
2019-03-22T09:11:29.944Z,114.80
2019-03-22T09:13:58.822Z,119.50
2019-03-22T09:16:30.526Z,125.23
2019-03-22T09:18:58.146Z,117.77
2019-03-22T09:21:27.022Z,116.60
2019-03-22T09:23:55.780Z,119.07
2019-03-22T09:26:24.543Z,110.83
2019-03-22T09:28:53.264Z,111.07
2019-03-22T09:31:22.055Z,111.13
2019-03-22T09:33:50.857Z,108.73
2019-03-22T09:36:19.754Z,111.17
2019-03-22T09:38:48.651Z,108.30
2019-03-22T09:41:17.380Z,110.93
2019-03-22T09:43:46.308Z,111.87
2019-03-22T09:46:15.066Z,145.87
2019-03-22T09:48:43.798Z,106.97
2019-03-22T09:51:12.600Z,104.03
2019-03-22T09:53:41.395Z,102.50
2019-03-22T09:56:10.147Z,97.20
2019-03-22T09:58:39.008Z,103.03
2019-03-22T10:01:07.877Z,97.63
2019-03-22T10:03:36.668Z,99.67
2019-03-22T10:06:05.571Z,106.27
2019-03-22T10:08:34.426Z,96.37
2019-03-22T10:11:03.200Z,90.57
2019-03-22T10:13:31.953Z,97.73
2019-03-22T10:16:00.619Z,94.70
2019-03-22T10:18:29.327Z,95.17
2019-03-22T10:20:58.167Z,96.70
2019-03-22T10:23:26.937Z,96.23
2019-03-22T10:25:55.726Z,95.10
2019-03-22T10:28:24.416Z,95.07
2019-03-22T10:30:53.073Z,96.57
2019-03-22T10:33:23.070Z,89.30
2019-03-22T10:35:52.339Z,85.83
2019-03-22T10:38:30.900Z,90.73
2019-03-22T10:40:51.485Z,95.80
2019-03-22T10:43:20.388Z,93.37
2019-03-22T10:45:50.153Z,85.03
2019-03-22T10:48:18.777Z,86.27
2019-03-22T10:50:47.648Z,91.17
2019-03-22T10:53:16.484Z,89.03
2019-03-22T10:55:45.327Z,82.90
2019-03-22T10:58:20.777Z,81.13
2019-03-22T11:00:44.473Z,86.70
2019-03-22T11:03:13.251Z,85.27
2019-03-22T11:05:42.058Z,96.03
2019-03-22T11:08:10.799Z,90.63
2019-03-22T11:10:39.607Z,90.33
2019-03-22T11:13:08.370Z,91.43
2019-03-22T11:15:37.222Z,90.20
2019-03-22T11:18:06.181Z,91.43
2019-03-22T11:20:35.070Z,83.43
2019-03-22T11:23:03.918Z,84.60
2019-03-22T11:25:32.757Z,81.40
2019-03-22T11:28:01.510Z,84.77
2019-03-22T11:30:30.398Z,84.03
2019-03-22T11:32:59.232Z,84.53
2019-03-22T11:35:28.004Z,83.13
2019-03-22T11:37:56.731Z,85.60
2019-03-22T11:40:25.449Z,81.47
2019-03-22T11:42:54.298Z,86.80
2019-03-22T11:45:24.663Z,91.30
2019-03-22T11:47:53.756Z,90.20
2019-03-22T11:50:23.326Z,89.37
2019-03-22T11:52:52.191Z,93.00
2019-03-22T11:55:20.797Z,85.87
2019-03-22T11:57:49.578Z,87.67
2019-03-22T12:00:27.584Z,95.10
2019-03-22T12:02:56.510Z,96.03
2019-03-22T12:05:25.379Z,94.20
2019-03-22T12:07:54.165Z,93.43
2019-03-22T12:10:23.424Z,83.57
2019-03-22T12:12:52.253Z,90.77
2019-03-22T12:15:24.165Z,89.87
2019-03-22T12:17:53.010Z,88.37
2019-03-22T12:20:23.426Z,83.13
2019-03-22T12:22:52.560Z,92.63
2019-03-22T12:25:25.781Z,88.93
2019-03-22T12:27:54.601Z,88.43
2019-03-22T12:30:23.407Z,84.63
2019-03-22T12:32:52.273Z,100.67
2019-03-22T12:35:21.149Z,88.80
2019-03-22T12:37:49.978Z,96.60
2019-03-22T12:40:20.767Z,91.60
2019-03-22T12:42:49.613Z,95.80
2019-03-22T12:45:26.987Z,91.00
2019-03-22T12:47:55.862Z,87.07
2019-03-22T12:50:25.097Z,97.87
2019-03-22T12:52:53.861Z,85.57
2019-03-22T12:55:22.769Z,90.80
2019-03-22T12:57:51.712Z,83.37
2019-03-22T13:00:27.356Z,84.57
2019-03-22T13:02:56.389Z,81.70
2019-03-22T13:05:25.271Z,86.00
2019-03-22T13:07:54.019Z,81.90
2019-03-22T13:10:29.996Z,83.07
2019-03-22T13:12:58.825Z,88.50
2019-03-22T13:15:27.833Z,133.27
2019-03-22T13:17:56.672Z,85.57
2019-03-22T13:20:25.458Z,81.77
2019-03-22T13:22:54.461Z,82.20
2019-03-22T13:25:23.272Z,80.80
2019-03-22T13:27:52.388Z,92.00
2019-03-22T13:30:32.749Z,83.30
2019-03-22T13:33:01.541Z,82.67
2019-03-22T13:35:31.067Z,75.90
2019-03-22T13:38:00.360Z,84.37
2019-03-22T13:40:29.201Z,79.83
2019-03-22T13:42:58.550Z,80.33
2019-03-22T13:45:27.466Z,83.87
2019-03-22T13:47:56.277Z,107.10
2019-03-22T13:50:25.141Z,80.10
2019-03-22T13:52:53.935Z,82.63
2019-03-22T13:55:22.801Z,81.77
2019-03-22T13:57:51.524Z,77.80
2019-03-22T14:00:20.377Z,79.63
2019-03-22T14:02:49.405Z,80.20
2019-03-22T14:05:18.270Z,83.37
2019-03-22T14:07:47.141Z,80.30
2019-03-22T14:10:31.004Z,78.47
2019-03-22T14:13:01.312Z,74.23
2019-03-22T14:15:30.285Z,83.20
2019-03-22T14:17:59.266Z,76.13
2019-03-22T14:20:28.092Z,80.17
2019-03-22T14:22:56.931Z,80.57
2019-03-22T14:25:25.828Z,92.00
2019-03-22T14:27:55.107Z,86.70
2019-03-22T14:30:24.129Z,82.00
2019-03-22T14:32:52.891Z,74.53
2019-03-22T14:35:21.635Z,80.57
2019-03-22T14:37:50.375Z,76.57
2019-03-22T14:40:19.170Z,77.10
2019-03-22T14:42:47.932Z,69.00
2019-03-22T14:45:16.755Z,66.60
2019-03-22T14:47:45.591Z,67.37
2019-03-22T14:50:14.544Z,69.20
2019-03-22T14:52:43.327Z,68.97
2019-03-22T14:55:12.524Z,67.43
2019-03-22T14:57:48.974Z,65.33
2019-03-22T15:00:14.138Z,61.40
2019-03-22T15:02:42.953Z,63.67
2019-03-22T15:05:11.840Z,63.33
2019-03-22T15:07:40.545Z,61.10
2019-03-22T15:10:11.239Z,60.50
2019-03-22T15:12:40.204Z,57.87
2019-03-22T15:15:18.132Z,50.93
2019-03-22T15:18:04.687Z,54.23
2019-03-22T15:20:35.110Z,56.00
2019-03-22T15:23:08.593Z,51.67
2019-03-22T15:25:48.162Z,106.27
2019-03-22T15:28:35.179Z,101.77
2019-03-22T15:31:08.069Z,124.40
2019-03-22T15:33:44.334Z,309.53
2019-03-22T15:36:30.954Z,136.93
2019-03-22T15:39:07.801Z,134.77
2019-03-22T15:41:37.323Z,90.27
2019-03-22T15:44:06.247Z,99.70
2019-03-22T15:46:35.047Z,100.00
2019-03-22T15:49:03.775Z,157.60
2019-03-22T15:51:32.531Z,102.97
2019-03-22T15:54:01.381Z,72.43
2019-03-22T15:56:30.154Z,61.77
2019-03-22T15:58:58.864Z,83.70
2019-03-22T16:01:27.553Z,76.53
2019-03-22T16:03:56.334Z,70.20
2019-03-22T16:06:25.200Z,57.63
2019-03-22T16:08:54.088Z,58.50
2019-03-22T16:11:22.919Z,82.77
2019-03-22T16:13:53.684Z,92.40
2019-03-22T16:16:22.153Z,246.43
2019-03-22T16:18:50.983Z,236.33
2019-03-22T16:21:19.804Z,81.03
2019-03-22T16:23:48.735Z,80.50
2019-03-22T16:26:17.365Z,136.33
2019-03-22T16:28:46.158Z,101.00
2019-03-22T16:31:15.105Z,85.13
2019-03-22T16:33:47.070Z,74.03
2019-03-22T16:36:14.380Z,118.93
2019-03-22T16:38:43.410Z,111.63
2019-03-22T16:41:12.362Z,111.90
2019-03-22T16:43:41.322Z,106.50
2019-03-22T16:46:10.331Z,100.13
2019-03-22T16:48:39.150Z,106.33
2019-03-22T16:51:08.033Z,103.07
2019-03-22T16:53:36.934Z,108.17
2019-03-22T16:56:05.748Z,93.30
2019-03-22T16:58:34.581Z,88.47
2019-03-22T17:01:03.659Z,107.97
2019-03-22T17:03:32.364Z,94.07
2019-03-22T17:06:01.232Z,96.87
2019-03-22T17:08:30.126Z,96.07
2019-03-22T17:10:58.867Z,90.17
2019-03-22T17:13:27.651Z,88.33
2019-03-22T17:15:56.494Z,90.63
2019-03-22T17:18:25.332Z,85.27
2019-03-22T17:20:54.143Z,87.13
2019-03-22T17:23:23.043Z,82.13
2019-03-22T17:25:51.946Z,123.70
2019-03-22T17:28:20.777Z,85.17
2019-03-22T17:30:49.590Z,148.57
2019-03-22T17:33:18.392Z,133.53
2019-03-22T17:35:47.339Z,197.60
2019-03-22T17:38:16.196Z,249.97
2019-03-22T17:40:45.004Z,153.60
2019-03-22T17:43:13.857Z,213.33
2019-03-22T17:45:42.797Z,224.53
2019-03-22T17:48:11.447Z,219.50
2019-03-22T17:50:40.157Z,224.40
2019-03-22T17:53:09.071Z,216.77
2019-03-22T17:55:38.286Z,425.47
2019-03-22T17:58:07.135Z,358.70
2019-03-22T18:00:36.061Z,260.37
2019-03-22T18:03:05.197Z,458.70
2019-03-22T18:05:34.150Z,203.40
2019-03-22T18:08:03.049Z,215.43
2019-03-22T18:10:32.091Z,152.20
2019-03-22T18:13:01.005Z,117.03
2019-03-22T18:15:29.797Z,150.13
2019-03-22T18:17:58.523Z,138.80
2019-03-22T18:20:27.331Z,144.27
2019-03-22T18:22:56.055Z,114.20
2019-03-22T18:25:24.755Z,115.53
2019-03-22T18:27:53.510Z,119.97
2019-03-22T18:30:22.352Z,141.53
2019-03-22T18:32:51.028Z,321.50
2019-03-22T18:35:19.909Z,201.53
2019-03-22T18:37:48.904Z,183.73
2019-03-22T18:40:17.741Z,177.13
2019-03-22T18:42:46.483Z,558.63
2019-03-22T18:45:15.748Z,696.40
2019-03-22T18:47:44.772Z,712.37
2019-03-22T18:50:14.544Z,228.27
2019-03-22T18:52:43.494Z,179.57
2019-03-22T18:55:12.937Z,272.70
2019-03-22T18:57:41.854Z,178.70
2019-03-22T19:00:16.017Z,193.37
2019-03-22T19:02:44.882Z,148.93
2019-03-22T19:05:14.163Z,369.10
2019-03-22T19:07:42.870Z,365.33
2019-03-22T19:10:16.019Z,306.47
2019-03-22T19:12:44.759Z,292.33
2019-03-22T19:15:14.535Z,266.23
2019-03-22T19:17:43.201Z,395.23
2019-03-22T19:20:15.923Z,301.60
2019-03-22T19:22:44.768Z,252.33
2019-03-22T19:25:14.598Z,209.90
2019-03-22T19:27:43.640Z,249.60
2019-03-22T19:30:15.072Z,229.70
2019-03-22T19:32:43.836Z,194.40
2019-03-22T19:35:12.920Z,179.70
2019-03-22T19:37:41.695Z,284.10
2019-03-22T19:40:12.595Z,378.20
2019-03-22T19:42:41.519Z,178.80
2019-03-22T19:45:12.491Z,201.70
2019-03-22T19:47:41.335Z,290.93
2019-03-22T19:50:18.165Z,310.40
2019-03-22T19:52:47.366Z,336.83
2019-03-22T19:55:16.168Z,370.07
2019-03-22T19:57:45.074Z,401.07
2019-03-22T20:00:16.590Z,247.67
2019-03-22T20:02:45.380Z,234.73
2019-03-22T20:05:22.980Z,401.53
2019-03-22T20:07:51.846Z,282.37
2019-03-22T20:10:20.716Z,209.10
2019-03-22T20:12:49.897Z,195.97
2019-03-22T20:15:18.750Z,159.03
2019-03-22T20:17:47.620Z,135.03
2019-03-22T20:20:16.458Z,203.57
2019-03-22T20:22:45.470Z,216.27
2019-03-22T20:25:14.595Z,130.00
2019-03-22T20:27:43.620Z,232.43
2019-03-22T20:30:14.922Z,202.10
2019-03-22T20:32:44.094Z,163.23
2019-03-22T20:35:16.667Z,150.83
2019-03-22T20:37:44.954Z,161.20
2019-03-22T20:40:16.119Z,171.27
2019-03-22T20:42:45.160Z,194.50
2019-03-22T20:45:23.596Z,189.37
2019-03-22T20:47:44.424Z,205.03
2019-03-22T20:50:13.591Z,206.90
2019-03-22T20:52:42.508Z,192.73
2019-03-22T20:55:11.338Z,214.47
2019-03-22T20:57:40.088Z,218.63
2019-03-22T21:00:12.397Z,188.40
2019-03-22T21:02:41.199Z,190.27
2019-03-22T21:05:10.362Z,222.57
2019-03-22T21:07:39.111Z,261.40
2019-03-22T21:10:08.844Z,238.53
2019-03-22T21:12:37.761Z,230.40
2019-03-22T21:15:07.969Z,169.53
2019-03-22T21:17:36.703Z,159.77
2019-03-22T21:20:10.280Z,148.33
2019-03-22T21:22:39.121Z,148.63
2019-03-22T21:25:08.740Z,146.67
2019-03-22T21:27:37.633Z,146.00
2019-03-22T21:30:08.940Z,149.50
2019-03-22T21:32:45.234Z,165.30
2019-03-22T21:35:08.810Z,167.17
2019-03-22T21:37:37.569Z,166.20
2019-03-22T21:40:08.224Z,172.87
2019-03-22T21:42:37.088Z,182.23
2019-03-22T21:45:06.918Z,208.23
2019-03-22T21:47:36.280Z,176.60
2019-03-22T21:50:07.896Z,194.57
2019-03-22T21:52:36.556Z,185.03
2019-03-22T21:55:07.242Z,188.80
2019-03-22T21:57:36.080Z,190.10
2019-03-22T22:00:10.504Z,185.57
2019-03-22T22:02:39.246Z,200.00
2019-03-22T22:05:08.321Z,167.93
2019-03-22T22:07:37.235Z,153.27
2019-03-22T22:10:10.438Z,168.43
2019-03-22T22:12:39.512Z,167.40
2019-03-22T22:15:12.115Z,165.83
2019-03-22T22:17:41.624Z,197.97
2019-03-22T22:20:10.889Z,201.50
2019-03-22T22:22:39.540Z,203.07
2019-03-22T22:25:09.360Z,193.27
2019-03-22T22:27:38.149Z,190.73
2019-03-22T22:30:08.987Z,198.37
2019-03-22T22:32:37.855Z,212.90
2019-03-22T22:35:08.253Z,335.37
2019-03-22T22:37:36.965Z,249.60
2019-03-22T22:40:11.449Z,205.83
2019-03-22T22:42:40.278Z,198.37
2019-03-22T22:45:10.755Z,191.37
2019-03-22T22:47:39.487Z,252.93
2019-03-22T22:50:12.443Z,318.60
2019-03-22T22:52:41.329Z,271.87
2019-03-22T22:55:10.561Z,238.23
2019-03-22T22:57:39.435Z,233.23
2019-03-22T23:00:15.832Z,222.40
2019-03-22T23:02:45.080Z,226.97
2019-03-22T23:05:13.927Z,214.63
2019-03-22T23:07:42.923Z,219.90
2019-03-22T23:10:12.841Z,226.80
2019-03-22T23:12:42.283Z,243.53
2019-03-22T23:15:11.595Z,236.07
2019-03-22T23:17:40.541Z,224.10
2019-03-22T23:20:10.634Z,211.50
2019-03-22T23:22:39.395Z,231.57
2019-03-22T23:25:08.205Z,243.03
2019-03-22T23:27:37.641Z,234.50
2019-03-22T23:30:09.354Z,229.13
2019-03-22T23:32:38.289Z,214.63
2019-03-22T23:35:07.168Z,217.30
2019-03-22T23:37:35.830Z,200.00
2019-03-22T23:40:06.413Z,178.37
2019-03-22T23:42:35.131Z,172.53
2019-03-22T23:45:05.489Z,198.57
2019-03-22T23:47:34.226Z,227.83
2019-03-22T23:50:03.642Z,234.70
2019-03-22T23:52:32.323Z,234.97
2019-03-22T23:55:01.239Z,241.10
2019-03-22T23:57:30.049Z,221.87
2019-03-22T23:59:58.796Z,237.97
